createdAt,value
2018-12-15T00:00:50.030Z,19.30
2018-12-15T00:03:20.996Z,18.63
2018-12-15T00:05:52.076Z,18.43
2018-12-15T00:08:21.061Z,19.77
2018-12-15T00:10:49.729Z,19.57
2018-12-15T00:13:18.633Z,20.43
2018-12-15T00:15:47.204Z,29.80
2018-12-15T00:18:15.783Z,32.23
2018-12-15T00:20:44.726Z,36.17
2018-12-15T00:23:13.285Z,50.35
2018-12-15T00:25:42.395Z,49.63
2018-12-15T00:28:10.954Z,47.27
2018-12-15T00:30:39.538Z,35.63
2018-12-15T00:33:08.458Z,30.23
2018-12-15T00:35:37.374Z,28.80
2018-12-15T00:38:06.340Z,27.50
2018-12-15T00:40:35.347Z,27.57
2018-12-15T00:43:04.283Z,27.50
2018-12-15T00:45:32.847Z,26.73
2018-12-15T00:48:01.375Z,24.50
2018-12-15T00:50:30.279Z,23.10
2018-12-15T00:53:00.258Z,20.97
2018-12-15T00:55:29.230Z,19.83
2018-12-15T00:57:57.866Z,20.10
2018-12-15T01:00:26.450Z,19.90
2018-12-15T01:02:55.056Z,20.47
2018-12-15T01:05:24.023Z,20.87
2018-12-15T01:07:52.908Z,20.83
2018-12-15T01:10:21.572Z,20.77
2018-12-15T01:12:50.065Z,19.67
2018-12-15T01:15:23.152Z,19.43
2018-12-15T01:21:09.343Z,18.70
2018-12-15T01:23:58.421Z,17.70
2018-12-15T01:26:51.808Z,17.50
2018-12-15T01:39:03.658Z,14.73
2018-12-15T01:44:48.886Z,14.90
2018-12-15T01:54:07.373Z,14.40
2018-12-15T01:56:49.891Z,14.97
2018-12-15T01:59:32.117Z,14.10
2018-12-15T02:02:09.824Z,13.87
2018-12-15T02:04:52.257Z,14.57
2018-12-15T02:07:33.423Z,14.60
2018-12-15T02:10:11.425Z,14.13
2018-12-15T02:12:48.332Z,13.63
2018-12-15T02:18:18.664Z,13.67
2018-12-15T02:20:47.240Z,16.17
2018-12-15T02:23:16.137Z,18.33
2018-12-15T02:25:45.072Z,20.17
2018-12-15T02:28:13.991Z,22.50
2018-12-15T02:30:42.998Z,20.57
2018-12-15T02:33:12.038Z,19.77
2018-12-15T02:35:40.944Z,18.83
2018-12-15T02:38:09.870Z,18.07
2018-12-15T02:40:38.877Z,18.63
2018-12-15T02:43:07.900Z,19.27
2018-12-15T02:45:36.873Z,18.13
2018-12-15T02:48:05.834Z,17.73
2018-12-15T02:50:34.420Z,17.07
2018-12-15T02:53:03.311Z,18.17
2018-12-15T02:55:32.631Z,18.33
2018-12-15T02:58:01.549Z,18.00
2018-12-15T03:00:30.107Z,17.33
2018-12-15T03:02:59.016Z,18.10
2018-12-15T03:05:27.932Z,18.50
2018-12-15T03:07:56.539Z,15.60
2018-12-15T03:10:32.062Z,14.87
2018-12-15T03:13:01.034Z,14.40
2018-12-15T03:15:29.939Z,14.93
2018-12-15T03:17:58.898Z,14.33
2018-12-15T03:20:27.855Z,14.37
2018-12-15T03:22:56.835Z,15.97
2018-12-15T03:25:25.797Z,15.83
2018-12-15T03:27:54.699Z,15.53
2018-12-15T03:30:23.652Z,15.17
2018-12-15T03:32:52.542Z,15.90
2018-12-15T03:35:21.128Z,16.20
2018-12-15T03:37:49.660Z,15.53
2018-12-15T03:40:18.573Z,14.80
2018-12-15T03:42:47.179Z,15.53
2018-12-15T03:45:18.170Z,13.53
2018-12-15T03:47:47.149Z,14.07
2018-12-15T03:50:16.085Z,14.63
2018-12-15T03:52:45.029Z,13.67
2018-12-15T03:55:14.176Z,13.73
2018-12-15T03:57:43.094Z,13.30
2018-12-15T04:00:15.499Z,13.67
2018-12-15T04:02:44.509Z,13.00
2018-12-15T04:05:13.209Z,12.67
2018-12-15T04:07:41.725Z,14.33
2018-12-15T04:10:10.610Z,14.10
2018-12-15T04:12:39.223Z,13.47
2018-12-15T04:15:08.144Z,16.47
2018-12-15T04:17:36.661Z,23.20
2018-12-15T04:20:05.363Z,22.93
2018-12-15T04:22:34.324Z,24.37
2018-12-15T04:25:03.309Z,23.97
2018-12-15T04:27:32.426Z,23.30
2018-12-15T04:30:03.833Z,23.67
2018-12-15T04:32:36.105Z,27.53
2018-12-15T04:35:05.781Z,29.77
2018-12-15T04:37:34.388Z,28.43
2018-12-15T04:40:04.122Z,26.50
2018-12-15T04:42:33.668Z,23.17
2018-12-15T04:45:03.221Z,18.03
2018-12-15T04:47:32.298Z,18.03
2018-12-15T04:50:02.051Z,17.17
2018-12-15T04:52:31.065Z,15.93
2018-12-15T04:55:00.151Z,15.87
2018-12-15T04:57:29.145Z,15.07
2018-12-15T04:59:58.087Z,15.03
2018-12-15T05:02:26.628Z,16.00
2018-12-15T05:04:55.690Z,14.67
2018-12-15T05:07:24.614Z,15.80
2018-12-15T05:09:53.607Z,15.53
2018-12-15T05:12:22.772Z,14.67
2018-12-15T05:14:51.725Z,14.80
2018-12-15T05:17:20.273Z,15.50
2018-12-15T05:19:49.221Z,14.50
2018-12-15T05:22:18.459Z,14.20
2018-12-15T05:24:47.733Z,14.07
2018-12-15T05:27:16.429Z,13.47
2018-12-15T05:29:45.001Z,12.93
2018-12-15T05:32:14.035Z,19.43
2018-12-15T05:34:43.545Z,14.50
2018-12-15T05:37:12.500Z,14.13
2018-12-15T05:39:41.055Z,15.03
2018-12-15T05:42:09.907Z,13.87
2018-12-15T05:44:38.865Z,14.20
2018-12-15T05:47:07.445Z,13.67
2018-12-15T05:49:36.355Z,14.87
2018-12-15T05:52:05.324Z,15.47
2018-12-15T05:54:33.896Z,14.53
2018-12-15T05:57:02.809Z,13.80
2018-12-15T05:59:31.382Z,13.77
2018-12-15T06:02:02.000Z,14.67
2018-12-15T06:04:30.933Z,15.93
2018-12-15T06:06:59.899Z,14.93
2018-12-15T06:09:28.808Z,14.67
2018-12-15T06:11:57.711Z,15.60
2018-12-15T06:14:26.458Z,15.20
2018-12-15T06:16:55.400Z,14.60
2018-12-15T06:19:24.479Z,16.20
2018-12-15T06:21:53.517Z,14.70
2018-12-15T06:24:22.299Z,14.33
2018-12-15T06:26:51.253Z,14.93
2018-12-15T06:29:20.138Z,15.47
2018-12-15T06:31:49.093Z,14.47
2018-12-15T06:34:17.624Z,14.87
2018-12-15T06:36:46.255Z,15.87
2018-12-15T06:39:15.173Z,15.73
2018-12-15T06:41:44.207Z,17.20
2018-12-15T06:44:13.141Z,20.33
2018-12-15T06:46:41.707Z,20.30
2018-12-15T06:49:10.546Z,26.80
2018-12-15T06:51:39.521Z,36.27
2018-12-15T06:54:08.416Z,37.60
2018-12-15T06:56:37.330Z,75.63
2018-12-15T06:59:06.327Z,48.43
2018-12-15T07:01:35.224Z,24.87
2018-12-15T07:04:03.847Z,21.13
2018-12-15T07:06:32.783Z,21.53
2018-12-15T07:09:01.426Z,21.10
2018-12-15T07:11:31.201Z,20.40
2018-12-15T07:14:00.226Z,21.27
2018-12-15T07:16:28.831Z,19.57
2018-12-15T07:18:57.403Z,19.90
2018-12-15T07:21:26.343Z,18.93
2018-12-15T07:23:54.943Z,21.67
2018-12-15T07:26:23.920Z,20.77
2018-12-15T07:28:52.514Z,19.87
2018-12-15T07:31:21.465Z,20.80
2018-12-15T07:33:50.073Z,26.03
2018-12-15T07:36:18.971Z,22.07
2018-12-15T07:38:47.872Z,21.27
2018-12-15T07:41:16.456Z,20.40
2018-12-15T07:43:44.999Z,19.00
2018-12-15T07:46:13.897Z,18.80
2018-12-15T07:48:42.829Z,19.80
2018-12-15T07:51:12.065Z,20.47
2018-12-15T07:53:40.679Z,20.70
2018-12-15T07:56:12.144Z,20.83
2018-12-15T07:58:41.033Z,21.77
2018-12-15T08:01:10.158Z,19.40
2018-12-15T08:03:39.126Z,17.97
2018-12-15T08:06:08.139Z,18.03
2018-12-15T08:08:37.103Z,18.53
2018-12-15T08:11:11.149Z,19.30
2018-12-15T08:13:42.310Z,20.13
2018-12-15T08:16:11.226Z,19.50
2018-12-15T08:18:40.150Z,16.80
2018-12-15T08:21:09.086Z,16.70
2018-12-15T08:23:38.017Z,17.20
2018-12-15T08:26:06.949Z,16.93
2018-12-15T08:28:35.990Z,16.77
2018-12-15T08:31:04.602Z,16.07
2018-12-15T08:33:33.562Z,15.27
2018-12-15T08:36:02.459Z,16.13
2018-12-15T08:38:31.412Z,17.30
2018-12-15T08:41:00.073Z,18.50
2018-12-15T08:43:29.121Z,19.70
2018-12-15T08:45:58.383Z,19.67
2018-12-15T08:48:26.917Z,18.67
2018-12-15T08:50:56.206Z,18.17
2018-12-15T08:53:24.842Z,18.20
2018-12-15T08:55:53.836Z,17.73
2018-12-15T08:58:22.893Z,19.63
2018-12-15T09:00:51.444Z,21.93
2018-12-15T09:03:20.039Z,22.25
2018-12-15T09:05:48.748Z,17.33
2018-12-15T09:08:17.775Z,16.73
2018-12-15T09:10:46.356Z,17.65
2018-12-15T09:13:15.433Z,15.93
2018-12-15T09:15:43.974Z,18.33
2018-12-15T09:18:13.037Z,15.30
2018-12-15T09:20:41.642Z,15.00
2018-12-15T09:23:10.606Z,13.70
2018-12-15T09:25:39.490Z,13.77
2018-12-15T09:28:08.019Z,14.27
2018-12-15T09:30:36.996Z,15.37
2018-12-15T09:33:05.910Z,15.73
2018-12-15T09:35:34.885Z,14.07
2018-12-15T09:38:03.464Z,14.87
2018-12-15T09:40:32.514Z,13.73
2018-12-15T09:43:01.477Z,14.03
2018-12-15T09:45:30.453Z,14.73
2018-12-15T09:47:59.009Z,13.60
2018-12-15T09:50:27.647Z,13.97
2018-12-15T09:52:56.562Z,13.23
2018-12-15T09:55:25.532Z,14.43
2018-12-15T09:57:54.072Z,15.60
2018-12-15T10:00:22.911Z,14.50
2018-12-15T10:02:51.472Z,14.80
2018-12-15T10:05:20.127Z,13.97
2018-12-15T10:07:49.168Z,14.43
2018-12-15T10:10:17.830Z,13.43
2018-12-15T10:12:46.446Z,14.00
2018-12-15T10:15:15.602Z,12.13
2018-12-15T10:17:44.727Z,14.47
2018-12-15T10:20:15.055Z,12.37
2018-12-15T10:22:44.148Z,13.13
2018-12-15T10:25:13.275Z,13.20
2018-12-15T10:27:42.146Z,13.40
2018-12-15T10:30:17.239Z,12.90
2018-12-15T10:32:51.355Z,13.43
2018-12-15T10:35:20.144Z,13.37
2018-12-15T10:37:49.211Z,15.30
2018-12-15T10:40:18.217Z,14.87
2018-12-15T10:42:47.109Z,12.13
2018-12-15T10:45:16.014Z,14.57
2018-12-15T10:47:44.954Z,14.20
2018-12-15T10:50:13.643Z,11.50
2018-12-15T10:52:42.169Z,11.20
2018-12-15T10:55:11.102Z,13.10
2018-12-15T10:57:40.768Z,10.27
2018-12-15T11:00:17.424Z,10.67
2018-12-15T11:02:47.012Z,11.25
2018-12-15T11:05:17.103Z,11.50
2018-12-15T11:07:45.689Z,10.70
2018-12-15T11:10:14.349Z,11.13
2018-12-15T11:12:42.896Z,11.50
2018-12-15T11:15:11.456Z,10.67
2018-12-15T11:17:40.392Z,11.20
2018-12-15T11:20:09.498Z,12.75
2018-12-15T11:22:38.104Z,13.20
2018-12-15T11:25:07.653Z,12.05
2018-12-15T11:27:36.615Z,11.03
2018-12-15T11:30:06.250Z,11.60
2018-12-15T11:32:35.240Z,11.63
2018-12-15T11:35:04.233Z,11.23
2018-12-15T11:37:33.189Z,12.10
2018-12-15T11:40:02.140Z,13.30
2018-12-15T11:42:32.278Z,12.17
2018-12-15T11:45:00.868Z,13.10
2018-12-15T11:47:29.825Z,13.45
2018-12-15T11:49:58.758Z,13.07
2018-12-15T11:52:27.300Z,12.30
2018-12-15T11:54:55.879Z,15.97
2018-12-15T11:57:24.808Z,13.70
2018-12-15T11:59:53.816Z,13.37
2018-12-15T12:02:22.728Z,12.60
2018-12-15T12:04:51.698Z,13.30
2018-12-15T12:07:20.660Z,13.47
2018-12-15T12:09:49.613Z,13.40
2018-12-15T12:12:18.504Z,13.33
2018-12-15T12:14:47.443Z,12.77
2018-12-15T12:17:16.327Z,13.95
2018-12-15T12:19:50.124Z,13.68
2018-12-15T12:22:15.589Z,13.13
2018-12-15T12:24:44.480Z,13.08
2018-12-15T12:27:15.152Z,13.27
2018-12-15T12:29:44.058Z,13.60
2018-12-15T12:32:13.017Z,13.95
2018-12-15T12:34:41.615Z,14.07
2018-12-15T12:37:10.584Z,13.53
2018-12-15T12:39:39.144Z,13.83
2018-12-15T12:42:08.433Z,13.57
2018-12-15T12:44:37.366Z,14.60
2018-12-15T12:47:06.286Z,14.80
2018-12-15T12:49:34.893Z,14.50
2018-12-15T12:52:03.893Z,14.57
2018-12-15T12:54:32.823Z,14.13
2018-12-15T12:57:01.784Z,16.25
2018-12-15T12:59:30.758Z,15.10
2018-12-15T13:01:59.762Z,14.20
2018-12-15T13:04:28.756Z,14.73
2018-12-15T13:06:57.753Z,14.93
2018-12-15T13:09:26.347Z,14.83
2018-12-15T13:11:55.393Z,15.03
2018-12-15T13:14:24.394Z,15.20
2018-12-15T13:16:53.334Z,15.27
2018-12-15T13:19:22.329Z,14.57
2018-12-15T13:21:51.241Z,14.43
2018-12-15T13:24:20.263Z,15.90
2018-12-15T13:26:49.198Z,14.70
2018-12-15T13:29:17.756Z,16.60
2018-12-15T13:31:46.720Z,15.97
2018-12-15T13:34:15.336Z,17.13
2018-12-15T13:36:44.673Z,17.17
2018-12-15T13:39:13.205Z,16.60
2018-12-15T13:41:41.913Z,17.13
2018-12-15T13:44:10.533Z,18.07
2018-12-15T13:46:41.205Z,17.87
2018-12-15T13:49:10.173Z,18.07
2018-12-15T13:51:39.247Z,19.57
2018-12-15T13:54:08.564Z,18.27
2018-12-15T13:56:38.545Z,18.33
2018-12-15T13:59:07.133Z,19.77
2018-12-15T14:01:35.686Z,19.00
2018-12-15T14:04:04.238Z,16.97
2018-12-15T14:06:34.268Z,17.73
2018-12-15T14:09:05.585Z,17.50
2018-12-15T14:11:35.864Z,16.27
2018-12-15T14:14:04.872Z,16.23
2018-12-15T14:16:33.922Z,17.43
2018-12-15T14:19:03.531Z,17.57
2018-12-15T14:21:32.499Z,18.37
2018-12-15T14:24:01.966Z,18.03
2018-12-15T14:26:32.024Z,17.67
2018-12-15T14:29:02.110Z,18.43
2018-12-15T14:31:31.469Z,18.70
2018-12-15T14:34:01.129Z,19.17
2018-12-15T14:36:30.125Z,18.93
2018-12-15T14:38:58.775Z,18.60
2018-12-15T14:41:27.922Z,20.27
2018-12-15T14:43:57.928Z,20.03
2018-12-15T14:46:28.758Z,20.13
2018-12-15T14:48:57.512Z,36.97
2018-12-15T14:51:27.248Z,46.83
2018-12-15T14:53:56.287Z,34.57
2018-12-15T14:56:24.878Z,41.90
2018-12-15T14:58:53.872Z,36.53
2018-12-15T15:01:22.462Z,30.93
2018-12-15T15:03:51.418Z,29.00
2018-12-15T15:06:20.340Z,29.33
2018-12-15T15:08:49.267Z,24.63
2018-12-15T15:11:17.920Z,23.97
2018-12-15T15:13:46.582Z,25.40
2018-12-15T15:16:15.197Z,38.37
2018-12-15T15:18:44.910Z,24.20
2018-12-15T15:21:13.965Z,23.90
2018-12-15T15:23:43.020Z,26.27
2018-12-15T15:26:11.988Z,26.00
2018-12-15T15:28:40.537Z,25.95
2018-12-15T15:31:09.482Z,27.47
2018-12-15T15:33:38.075Z,25.03
2018-12-15T15:36:06.725Z,26.00
2018-12-15T15:38:35.250Z,25.00
2018-12-15T15:41:03.914Z,25.70
2018-12-15T15:43:32.824Z,28.90
2018-12-15T15:46:01.539Z,30.37
2018-12-15T15:48:30.171Z,28.77
2018-12-15T15:50:59.109Z,30.77
2018-12-15T15:53:28.069Z,30.03
2018-12-15T15:55:57.006Z,37.53
2018-12-15T15:58:25.520Z,41.77
2018-12-15T16:00:54.384Z,35.30
2018-12-15T16:03:23.275Z,35.50
2018-12-15T16:05:52.250Z,35.10
2018-12-15T16:08:21.290Z,38.50
2018-12-15T16:10:55.081Z,37.20
2018-12-15T16:13:23.646Z,35.57
2018-12-15T16:15:52.221Z,35.33
2018-12-15T16:18:21.307Z,36.83
2018-12-15T16:20:50.232Z,38.17
2018-12-15T16:23:19.210Z,41.43
2018-12-15T16:25:48.219Z,40.97
2018-12-15T16:28:18.430Z,40.37
2018-12-15T16:30:47.008Z,41.10
2018-12-15T16:33:15.587Z,47.27
2018-12-15T16:35:44.474Z,52.73
2018-12-15T16:38:13.473Z,54.13
2018-12-15T16:40:42.390Z,59.33
2018-12-15T16:43:11.023Z,52.53
2018-12-15T16:45:39.638Z,51.47
2018-12-15T16:48:08.569Z,47.20
2018-12-15T16:50:37.191Z,58.57
2018-12-15T16:53:06.295Z,54.33
2018-12-15T16:55:34.869Z,54.13
2018-12-15T16:58:03.437Z,52.80
2018-12-15T17:00:32.410Z,52.77
2018-12-15T17:03:01.407Z,49.80
2018-12-15T17:05:30.357Z,49.77
2018-12-15T17:07:59.332Z,49.57
2018-12-15T17:10:28.234Z,52.87
2018-12-15T17:12:57.209Z,50.97
2018-12-15T17:15:26.182Z,51.60
2018-12-15T17:17:54.760Z,51.27
2018-12-15T17:20:23.827Z,57.07
2018-12-15T17:22:52.637Z,75.90
2018-12-15T17:25:21.621Z,81.00
2018-12-15T17:27:50.185Z,60.23
2018-12-15T17:30:18.749Z,65.87
2018-12-15T17:32:47.766Z,54.63
2018-12-15T17:35:16.665Z,56.63
2018-12-15T17:37:45.602Z,57.13
2018-12-15T17:40:14.824Z,49.60
2018-12-15T17:42:43.728Z,50.17
2018-12-15T17:45:12.226Z,53.30
2018-12-15T17:47:41.146Z,54.37
2018-12-15T17:50:10.616Z,56.80
2018-12-15T17:52:41.743Z,59.90
2018-12-15T17:55:14.294Z,54.70
2018-12-15T17:57:43.293Z,53.30
2018-12-15T18:00:13.368Z,58.87
2018-12-15T18:02:41.909Z,56.83
2018-12-15T18:05:10.918Z,62.10
2018-12-15T18:07:39.435Z,59.03
2018-12-15T18:10:09.731Z,60.40
2018-12-15T18:12:38.660Z,53.60
2018-12-15T18:15:07.667Z,54.10
2018-12-15T18:17:36.664Z,51.07
2018-12-15T18:20:06.736Z,51.03
2018-12-15T18:22:35.701Z,54.33
2018-12-15T18:25:05.304Z,52.83
2018-12-15T18:27:34.367Z,53.10
2018-12-15T18:30:03.831Z,56.27
2018-12-15T18:32:33.450Z,57.27
2018-12-15T18:35:03.696Z,56.17
2018-12-15T18:37:32.656Z,57.37
2018-12-15T18:40:01.244Z,59.42
2018-12-15T18:42:29.914Z,55.47
2018-12-15T18:44:58.496Z,57.10
2018-12-15T18:47:27.453Z,57.17
2018-12-15T18:49:56.446Z,58.10
2018-12-15T18:52:25.398Z,57.83
2018-12-15T18:54:54.409Z,60.80
2018-12-15T18:57:23.385Z,57.77
2018-12-15T18:59:53.004Z,68.27
2018-12-15T19:02:22.046Z,65.63
2018-12-15T19:04:51.669Z,71.80
2018-12-15T19:07:20.621Z,66.57
2018-12-15T19:09:49.530Z,64.33
2018-12-15T19:12:18.745Z,73.12
2018-12-15T19:14:49.179Z,67.03
2018-12-15T19:17:17.737Z,70.83
2018-12-15T19:19:46.668Z,66.53
2018-12-15T19:22:15.244Z,70.57
2018-12-15T19:24:44.190Z,68.97
2018-12-15T19:27:13.158Z,66.87
2018-12-15T19:29:42.347Z,71.67
2018-12-15T19:32:10.985Z,71.53
2018-12-15T19:34:39.887Z,71.50
2018-12-15T19:37:08.446Z,70.70
2018-12-15T19:39:37.502Z,76.47
2018-12-15T19:42:06.024Z,75.93
2018-12-15T19:44:34.599Z,72.27
2018-12-15T19:47:03.918Z,68.43
2018-12-15T19:49:33.186Z,65.83
2018-12-15T19:52:02.076Z,69.13
2018-12-15T19:54:30.988Z,69.30
2018-12-15T19:57:01.409Z,68.97
2018-12-15T19:59:30.640Z,129.33
2018-12-15T20:01:59.720Z,114.47
2018-12-15T20:04:29.053Z,86.53
2018-12-15T20:06:57.975Z,76.07
2018-12-15T20:09:27.184Z,70.27
2018-12-15T20:11:56.431Z,69.37
2018-12-15T20:14:25.277Z,64.43
2018-12-15T20:16:54.499Z,58.93
2018-12-15T20:19:23.334Z,57.50
2018-12-15T20:21:53.591Z,57.73
2018-12-15T20:24:22.885Z,59.00
2018-12-15T20:26:51.865Z,55.77
2018-12-15T20:29:20.408Z,55.83
2018-12-15T20:31:49.396Z,56.00
2018-12-15T20:34:18.385Z,56.30
2018-12-15T20:36:47.442Z,55.97
2018-12-15T20:39:16.011Z,58.17
2018-12-15T20:41:44.954Z,54.63
2018-12-15T20:44:13.999Z,58.93
2018-12-15T20:46:43.297Z,58.03
2018-12-15T20:49:12.250Z,72.70
2018-12-15T20:51:42.942Z,73.93
2018-12-15T20:54:19.152Z,59.93
2018-12-15T20:56:47.761Z,56.97
2018-12-15T20:59:16.484Z,55.47
2018-12-15T21:01:45.510Z,54.10
2018-12-15T21:04:14.400Z,55.07
2018-12-15T21:06:43.354Z,54.13
2018-12-15T21:09:11.925Z,57.90
2018-12-15T21:11:40.900Z,56.07
2018-12-15T21:14:09.519Z,56.47
2018-12-15T21:16:38.457Z,59.40
2018-12-15T21:19:07.056Z,58.87
2018-12-15T21:21:36.088Z,54.40
2018-12-15T21:24:05.031Z,50.07
2018-12-15T21:26:33.986Z,48.63
2018-12-15T21:29:03.014Z,47.40
2018-12-15T21:31:31.565Z,43.77
2018-12-15T21:34:00.619Z,42.23
2018-12-15T21:36:29.566Z,43.33
2018-12-15T21:38:58.589Z,42.20
2018-12-15T21:41:27.195Z,45.70
2018-12-15T21:43:55.875Z,56.60
2018-12-15T21:46:24.884Z,65.77
2018-12-15T21:48:53.487Z,59.73
2018-12-15T21:51:22.408Z,53.40
2018-12-15T21:53:50.986Z,51.50
2018-12-15T21:56:19.531Z,47.73
2018-12-15T21:58:48.116Z,47.67
2018-12-15T22:01:17.078Z,50.57
2018-12-15T22:03:46.003Z,51.00
2018-12-15T22:06:15.034Z,49.20
2018-12-15T22:08:43.943Z,49.50
2018-12-15T22:11:12.865Z,45.60
2018-12-15T22:13:41.837Z,46.60
2018-12-15T22:16:10.811Z,46.73
2018-12-15T22:18:39.781Z,44.47
2018-12-15T22:21:08.715Z,46.87
2018-12-15T22:23:37.658Z,45.93
2018-12-15T22:26:06.596Z,43.87
2018-12-15T22:28:35.113Z,44.90
2018-12-15T22:31:04.074Z,44.17
2018-12-15T22:33:32.997Z,46.43
2018-12-15T22:36:02.629Z,49.43
2018-12-15T22:38:31.734Z,44.77
2018-12-15T22:41:00.724Z,43.53
2018-12-15T22:43:29.620Z,41.67
2018-12-15T22:45:58.215Z,45.37
2018-12-15T22:48:27.157Z,49.37
2018-12-15T22:50:56.067Z,52.37
2018-12-15T22:53:24.970Z,47.73
2018-12-15T22:55:53.565Z,51.33
2018-12-15T22:58:22.591Z,47.83
2018-12-15T23:00:57.470Z,47.23
2018-12-15T23:03:28.460Z,60.97
2018-12-15T23:05:57.443Z,64.20
2018-12-15T23:08:26.374Z,56.87
2018-12-15T23:10:55.040Z,58.73
2018-12-15T23:13:23.955Z,53.57
2018-12-15T23:15:52.910Z,60.97
2018-12-15T23:18:22.126Z,55.03
2018-12-15T23:20:51.228Z,50.17
2018-12-15T23:23:20.217Z,49.00
2018-12-15T23:25:49.207Z,48.83
2018-12-15T23:28:18.121Z,44.20
2018-12-15T23:30:46.849Z,45.30
2018-12-15T23:33:15.777Z,43.43
2018-12-15T23:35:44.727Z,39.13
2018-12-15T23:38:13.707Z,43.03
2018-12-15T23:40:42.269Z,41.13
2018-12-15T23:43:11.236Z,42.67
2018-12-15T23:45:40.366Z,52.60
2018-12-15T23:48:09.286Z,44.30
2018-12-15T23:50:39.374Z,44.13
2018-12-15T23:53:08.343Z,42.67
2018-12-15T23:55:37.280Z,43.30
2018-12-15T23:58:06.168Z,41.00
